createdAt,value
2022-08-28T00:00:25.080Z,96.10
2022-08-28T00:02:51.729Z,98.51
2022-08-28T00:05:20.430Z,99.75
2022-08-28T00:07:48.053Z,99.49
2022-08-28T00:10:17.050Z,100.00
2022-08-28T00:12:45.243Z,100.00
2022-08-28T00:15:16.032Z,100.00
2022-08-28T00:17:42.804Z,100.00
2022-08-28T00:20:11.741Z,100.00
2022-08-28T00:22:39.391Z,100.00
2022-08-28T00:25:08.259Z,100.00
2022-08-28T00:27:53.108Z,100.00
2022-08-28T00:30:25.739Z,100.00
2022-08-28T00:32:54.700Z,100.00
2022-08-28T00:35:22.109Z,100.00
2022-08-28T00:37:48.714Z,100.00
2022-08-28T00:40:18.710Z,100.00
2022-08-28T00:42:55.458Z,100.00
2022-08-28T00:45:24.697Z,100.00
2022-08-28T00:47:53.714Z,100.00
2022-08-28T00:50:24.406Z,100.00
2022-08-28T00:52:57.158Z,100.00
2022-08-28T00:55:25.949Z,100.00
2022-08-28T00:57:56.551Z,100.00
2022-08-28T01:00:31.512Z,100.00
2022-08-28T01:02:58.892Z,100.00
2022-08-28T01:05:26.781Z,100.00
2022-08-28T01:07:57.206Z,100.00
2022-08-28T01:10:25.910Z,100.00
2022-08-28T01:12:56.226Z,100.00
2022-08-28T01:15:28.578Z,100.00
2022-08-28T01:18:02.583Z,100.00
2022-08-28T01:20:34.734Z,100.00
2022-08-28T01:23:23.796Z,100.00
2022-08-28T01:25:52.512Z,100.00
2022-08-28T01:28:19.385Z,100.00
2022-08-28T01:30:48.701Z,100.00
2022-08-28T01:33:15.964Z,100.00
2022-08-28T01:35:46.048Z,100.00
2022-08-28T01:38:17.571Z,100.00
2022-08-28T01:40:49.746Z,100.00
2022-08-28T01:43:24.194Z,100.00
2022-08-28T01:45:53.899Z,100.00
2022-08-28T01:48:23.138Z,100.00
2022-08-28T01:50:50.813Z,100.00
2022-08-28T01:53:20.104Z,100.00
2022-08-28T01:55:52.623Z,100.00
2022-08-28T01:58:19.853Z,100.00
2022-08-28T02:00:46.724Z,100.00
2022-08-28T02:03:13.683Z,100.00
2022-08-28T02:05:41.177Z,100.00
2022-08-28T02:08:08.606Z,100.00
2022-08-28T02:10:37.533Z,100.00
2022-08-28T02:13:05.803Z,100.00
2022-08-28T02:15:34.474Z,100.00
2022-08-28T02:18:01.149Z,100.00
2022-08-28T02:20:29.124Z,100.00
2022-08-28T02:22:58.570Z,100.00
2022-08-28T02:25:27.720Z,100.00
2022-08-28T02:27:55.165Z,100.00
2022-08-28T02:30:21.871Z,100.00
2022-08-28T02:32:49.982Z,100.00
2022-08-28T02:35:18.827Z,100.00
2022-08-28T02:37:47.643Z,100.00
2022-08-28T02:40:16.834Z,100.00
2022-08-28T02:42:44.400Z,100.00
2022-08-28T02:45:12.644Z,100.00
2022-08-28T02:47:40.900Z,100.00
2022-08-28T02:50:09.323Z,100.00
2022-08-28T02:52:37.427Z,100.00
2022-08-28T02:55:06.043Z,100.00
2022-08-28T02:57:32.680Z,100.00
2022-08-28T03:00:00.195Z,100.00
2022-08-28T03:02:26.926Z,100.00
2022-08-28T03:04:53.948Z,100.00
2022-08-28T03:07:22.713Z,100.00
2022-08-28T03:09:50.216Z,100.00
2022-08-28T03:12:17.279Z,100.00
2022-08-28T03:14:44.203Z,100.00
2022-08-28T03:17:10.740Z,100.00
2022-08-28T03:19:37.311Z,100.00
2022-08-28T03:22:04.063Z,100.00
2022-08-28T03:24:31.126Z,100.00
2022-08-28T03:26:58.421Z,100.00
2022-08-28T03:29:25.056Z,100.00
2022-08-28T03:31:51.722Z,100.00
2022-08-28T03:34:18.651Z,100.00
2022-08-28T03:36:45.177Z,100.00
2022-08-28T03:39:11.738Z,100.00
2022-08-28T03:41:38.331Z,100.00
2022-08-28T03:44:05.127Z,100.00
2022-08-28T03:46:33.530Z,100.00
2022-08-28T03:49:02.401Z,100.00
2022-08-28T03:51:32.751Z,100.00
2022-08-28T03:54:00.738Z,100.00
2022-08-28T03:56:29.150Z,100.00
2022-08-28T03:58:58.517Z,100.00
2022-08-28T04:01:26.050Z,100.00
2022-08-28T04:03:52.690Z,100.00
2022-08-28T04:06:19.850Z,100.00
2022-08-28T04:08:47.448Z,100.00
2022-08-28T04:11:14.099Z,100.00
2022-08-28T04:13:41.999Z,100.00
2022-08-28T04:16:11.910Z,100.00
2022-08-28T04:18:42.101Z,100.00
2022-08-28T04:21:27.174Z,100.00
2022-08-28T04:23:55.080Z,100.00
2022-08-28T04:26:27.725Z,100.00
2022-08-28T04:28:56.045Z,100.00
2022-08-28T04:31:31.923Z,100.00
2022-08-28T04:34:05.870Z,100.00
2022-08-28T04:36:33.719Z,100.00
2022-08-28T04:39:00.881Z,100.00
2022-08-28T04:41:28.426Z,100.00
2022-08-28T04:43:57.497Z,100.00
2022-08-28T04:46:24.935Z,100.00
2022-08-28T04:48:53.096Z,100.00
2022-08-28T04:51:20.638Z,100.00
2022-08-28T04:53:47.555Z,100.00
2022-08-28T04:56:14.953Z,100.00
2022-08-28T04:58:43.407Z,100.00
2022-08-28T05:01:19.560Z,100.00
2022-08-28T05:03:48.255Z,100.00
2022-08-28T05:06:16.243Z,100.00
2022-08-28T05:08:43.207Z,100.00
2022-08-28T05:11:12.565Z,100.00
2022-08-28T05:13:39.625Z,100.00
2022-08-28T05:16:07.008Z,100.00
2022-08-28T05:18:34.309Z,100.00
2022-08-28T05:21:01.949Z,100.00
2022-08-28T05:23:29.399Z,100.00
2022-08-28T05:25:56.292Z,100.00
2022-08-28T05:28:24.567Z,100.00
2022-08-28T05:30:52.000Z,100.00
2022-08-28T05:33:18.717Z,100.00
2022-08-28T05:35:46.643Z,100.00
2022-08-28T05:38:16.535Z,100.00
2022-08-28T05:40:46.098Z,100.00
2022-08-28T05:43:14.658Z,100.00
2022-08-28T05:45:41.610Z,100.00
2022-08-28T05:48:09.816Z,100.00
2022-08-28T05:50:43.775Z,100.00
2022-08-28T05:53:14.228Z,100.00
2022-08-28T05:55:40.822Z,100.00
2022-08-28T05:58:25.764Z,100.00
2022-08-28T06:00:52.289Z,100.00
2022-08-28T06:03:18.862Z,100.00
2022-08-28T06:05:45.562Z,100.00
2022-08-28T06:08:12.444Z,100.00
2022-08-28T06:10:45.850Z,100.00
2022-08-28T06:13:15.337Z,100.00
2022-08-28T06:15:47.045Z,100.00
2022-08-28T06:18:14.999Z,100.00
2022-08-28T06:20:44.911Z,100.00
2022-08-28T06:23:23.976Z,100.00
2022-08-28T06:25:51.882Z,100.00
2022-08-28T06:28:21.404Z,100.00
2022-08-28T06:31:09.179Z,100.00
2022-08-28T06:33:36.261Z,100.00
2022-08-28T06:36:03.879Z,100.00
2022-08-28T06:38:30.927Z,100.00
2022-08-28T06:40:57.729Z,100.00
2022-08-28T06:43:27.236Z,100.00
2022-08-28T06:45:55.888Z,100.00
2022-08-28T06:48:27.404Z,100.00
2022-08-28T06:50:56.019Z,100.00
2022-08-28T06:53:29.086Z,100.00
2022-08-28T06:56:01.037Z,100.00
2022-08-28T06:58:28.406Z,100.00
2022-08-28T07:01:22.904Z,100.00
2022-08-28T07:03:51.287Z,100.00
2022-08-28T07:06:19.203Z,100.00
2022-08-28T07:08:46.279Z,100.00
2022-08-28T07:11:17.515Z,100.00
2022-08-28T07:13:45.222Z,100.00
2022-08-28T07:16:14.707Z,100.00
2022-08-28T07:18:41.346Z,100.00
2022-08-28T07:21:12.267Z,100.00
2022-08-28T07:23:42.108Z,100.00
2022-08-28T07:26:12.865Z,100.00
2022-08-28T07:28:39.694Z,100.00
2022-08-28T07:31:13.346Z,100.00
2022-08-28T07:33:41.648Z,100.00
2022-08-28T07:36:15.604Z,100.00
2022-08-28T07:38:48.741Z,100.00
2022-08-28T07:41:20.695Z,100.00
2022-08-28T07:44:06.753Z,100.00
2022-08-28T07:46:33.526Z,100.00
2022-08-28T07:49:00.736Z,100.00
2022-08-28T07:51:28.124Z,100.00
2022-08-28T07:53:57.299Z,100.00
2022-08-28T07:56:29.648Z,100.00
2022-08-28T07:59:01.169Z,100.00
2022-08-28T08:01:30.828Z,100.00
2022-08-28T08:04:01.361Z,100.00
2022-08-28T08:06:34.109Z,100.00
2022-08-28T08:09:19.323Z,100.00
2022-08-28T08:11:49.091Z,100.00
2022-08-28T08:14:18.880Z,100.00
2022-08-28T08:16:47.418Z,100.00
2022-08-28T08:19:17.542Z,100.00
2022-08-28T08:21:47.374Z,100.00
2022-08-28T08:27:19.254Z,100.00
2022-08-28T08:29:45.888Z,100.00
2022-08-28T08:32:12.845Z,100.00
2022-08-28T08:35:15.457Z,100.00
2022-08-28T08:37:41.975Z,100.00
2022-08-28T08:42:57.014Z,100.00
2022-08-28T08:45:26.631Z,100.00
2022-08-28T08:47:55.931Z,100.00
2022-08-28T08:50:58.171Z,100.00
2022-08-28T08:54:28.422Z,100.00
2022-08-28T08:57:14.937Z,100.00
2022-08-28T09:00:15.601Z,100.00
2022-08-28T09:03:44.058Z,100.00
2022-08-28T09:06:52.771Z,100.00
2022-08-28T09:09:46.865Z,100.00
2022-08-28T09:13:01.721Z,100.00
2022-08-28T09:19:07.165Z,100.00
2022-08-28T09:22:06.044Z,100.00
2022-08-28T09:30:13.757Z,100.00
2022-08-28T09:32:44.589Z,100.00
2022-08-28T09:35:38.786Z,100.00
2022-08-28T09:38:21.715Z,100.00
2022-08-28T09:43:57.999Z,100.00
2022-08-28T09:47:06.219Z,100.00
2022-08-28T09:49:32.724Z,98.55
2022-08-28T09:52:25.416Z,100.00
2022-08-28T09:54:52.694Z,97.95
2022-08-28T09:57:19.256Z,94.23
2022-08-28T10:00:14.203Z,90.92
2022-08-28T10:03:21.667Z,91.14
2022-08-28T10:06:43.603Z,90.93
2022-08-28T10:10:06.684Z,91.32
2022-08-28T10:13:14.159Z,89.78
2022-08-28T10:16:28.706Z,88.58
2022-08-28T10:19:27.534Z,88.16
2022-08-28T10:22:49.736Z,87.16
2022-08-28T10:28:55.720Z,84.49
2022-08-28T10:35:07.906Z,85.96
2022-08-28T10:37:40.105Z,83.81
2022-08-28T10:40:46.698Z,82.73
2022-08-28T10:43:19.321Z,81.49
2022-08-28T10:45:46.113Z,80.08
2022-08-28T10:49:11.027Z,78.36
2022-08-28T10:52:23.128Z,76.81
2022-08-28T10:55:37.052Z,76.63
2022-08-28T10:58:46.436Z,72.40
2022-08-28T11:01:52.201Z,74.53
2022-08-28T11:04:25.454Z,74.74
2022-08-28T11:07:13.433Z,74.13
2022-08-28T11:10:29.883Z,70.91
2022-08-28T11:12:56.727Z,70.57
2022-08-28T11:15:36.339Z,68.77
2022-08-28T11:18:15.867Z,64.76
2022-08-28T11:21:12.505Z,66.99
2022-08-28T11:24:49.338Z,68.98
2022-08-28T11:28:00.527Z,68.40
2022-08-28T11:34:06.621Z,61.08
2022-08-28T11:36:33.120Z,56.44
2022-08-28T11:39:24.931Z,59.99
2022-08-28T11:42:37.205Z,61.08
2022-08-28T11:45:05.291Z,62.72
2022-08-28T11:47:31.758Z,63.13
2022-08-28T11:50:40.083Z,64.72
2022-08-28T11:53:57.123Z,64.43
2022-08-28T11:57:23.255Z,62.15
2022-08-28T12:00:21.575Z,53.42
2022-08-28T12:03:27.972Z,53.51
2022-08-28T12:05:57.919Z,52.83
2022-08-28T12:08:48.988Z,51.89
2022-08-28T12:11:40.474Z,48.56
2022-08-28T12:14:08.186Z,48.89
2022-08-28T12:16:59.462Z,47.11
2022-08-28T12:20:19.537Z,47.99
2022-08-28T12:23:35.956Z,48.08
2022-08-28T12:26:07.315Z,47.26
2022-08-28T12:28:45.735Z,47.40
2022-08-28T12:32:14.756Z,47.97
2022-08-28T12:35:25.939Z,47.65
2022-08-28T12:37:58.973Z,46.72
2022-08-28T12:43:15.581Z,47.98
2022-08-28T12:46:50.391Z,47.33
2022-08-28T12:50:42.986Z,46.76
2022-08-28T12:53:18.264Z,44.50
2022-08-28T12:55:46.787Z,47.02
2022-08-28T12:58:47.931Z,44.71
2022-08-28T13:05:00.087Z,44.26
2022-08-28T13:10:59.587Z,45.45
2022-08-28T13:13:58.593Z,44.65
2022-08-28T13:17:06.071Z,43.93
2022-08-28T13:19:33.825Z,43.53
2022-08-28T13:22:44.991Z,43.76
2022-08-28T13:30:59.008Z,42.11
2022-08-28T13:33:27.118Z,43.68
2022-08-28T13:35:54.926Z,42.04
2022-08-28T13:38:24.011Z,42.41
2022-08-28T13:41:12.253Z,40.56
2022-08-28T13:43:47.058Z,39.90
2022-08-28T13:46:13.754Z,39.72
2022-08-28T13:48:40.374Z,40.82
2022-08-28T13:51:10.409Z,40.83
2022-08-28T13:53:56.738Z,40.83
2022-08-28T13:56:43.255Z,40.36
2022-08-28T13:59:09.836Z,39.73
2022-08-28T14:04:46.223Z,39.01
2022-08-28T14:07:14.082Z,39.34
2022-08-28T14:09:41.186Z,39.49
2022-08-28T14:12:09.923Z,39.11
2022-08-28T14:14:38.343Z,38.30
2022-08-28T14:17:06.437Z,37.92
2022-08-28T14:19:33.718Z,37.81
2022-08-28T14:22:00.792Z,37.85
2022-08-28T14:24:27.972Z,37.77
2022-08-28T14:26:55.029Z,37.43
2022-08-28T14:29:22.086Z,37.03
2022-08-28T14:31:49.391Z,37.25
2022-08-28T14:37:02.222Z,38.57
2022-08-28T14:39:29.167Z,38.14
2022-08-28T14:41:55.876Z,38.01
2022-08-28T14:44:24.604Z,37.62
2022-08-28T14:49:37.878Z,36.67
2022-08-28T14:52:04.645Z,36.89
2022-08-28T14:54:31.480Z,36.77
2022-08-28T14:56:58.050Z,36.71
2022-08-28T14:59:27.838Z,36.04
2022-08-28T15:04:38.516Z,35.47
2022-08-28T15:07:28.835Z,36.15
2022-08-28T15:09:55.443Z,35.40
2022-08-28T15:12:22.792Z,37.22
2022-08-28T15:14:57.065Z,36.73
2022-08-28T15:17:36.003Z,36.03
2022-08-28T15:20:04.385Z,36.13
2022-08-28T15:22:31.028Z,35.50
2022-08-28T15:24:58.498Z,35.36
2022-08-28T15:27:25.137Z,35.55
2022-08-28T15:29:51.725Z,36.57
2022-08-28T15:32:18.693Z,36.47
2022-08-28T15:34:45.255Z,35.14
2022-08-28T15:37:13.441Z,34.72
2022-08-28T15:42:49.193Z,34.55
2022-08-28T15:45:16.598Z,34.52
2022-08-28T15:47:44.154Z,34.25
2022-08-28T15:50:11.450Z,34.67
2022-08-28T15:52:38.615Z,34.00
2022-08-28T15:55:06.502Z,33.87
2022-08-28T15:57:33.110Z,34.41
2022-08-28T16:00:00.007Z,34.63
2022-08-28T16:02:27.116Z,34.15
2022-08-28T16:04:54.825Z,33.58
2022-08-28T16:07:22.746Z,32.86
2022-08-28T16:09:49.344Z,32.29
2022-08-28T16:12:18.938Z,31.72
2022-08-28T16:14:45.501Z,31.85
2022-08-28T16:17:12.129Z,31.60
2022-08-28T16:19:40.047Z,31.66
2022-08-28T16:22:07.079Z,31.31
2022-08-28T16:25:32.157Z,100.00
2022-08-28T16:28:57.353Z,100.00
2022-08-28T16:32:23.395Z,100.00
2022-08-28T16:35:54.929Z,100.00
2022-08-28T16:39:38.605Z,100.00
2022-08-28T16:43:04.214Z,100.00
2022-08-28T16:46:29.665Z,100.00
2022-08-28T16:49:58.267Z,100.00
2022-08-28T16:53:27.250Z,100.00
2022-08-28T16:57:11.436Z,100.00
2022-08-28T17:00:44.461Z,100.00
2022-08-28T17:04:21.731Z,100.00
2022-08-28T17:07:50.248Z,100.00
2022-08-28T17:11:16.933Z,100.00
2022-08-28T17:14:22.496Z,31.31
2022-08-28T17:16:50.432Z,29.50
2022-08-28T17:19:18.715Z,29.86
2022-08-28T17:24:54.918Z,30.36
2022-08-28T17:27:22.791Z,30.63
2022-08-28T17:29:50.318Z,30.44
2022-08-28T17:32:17.305Z,30.66
2022-08-28T17:34:43.873Z,30.17
2022-08-28T17:37:11.516Z,30.39
2022-08-28T17:39:38.312Z,29.98
2022-08-28T17:42:04.924Z,30.08
2022-08-28T17:44:32.076Z,31.46
2022-08-28T17:46:58.769Z,30.96
2022-08-28T17:49:26.242Z,31.38
2022-08-28T17:51:53.422Z,31.91
2022-08-28T17:54:22.565Z,32.06
2022-08-28T17:56:50.183Z,31.94
2022-08-28T17:59:20.365Z,31.92
2022-08-28T18:02:07.829Z,31.50
2022-08-28T18:04:35.679Z,31.29
2022-08-28T18:07:04.494Z,31.35
2022-08-28T18:09:31.141Z,32.37
2022-08-28T18:11:57.658Z,33.29
2022-08-28T18:14:24.206Z,33.90
2022-08-28T18:16:51.559Z,34.09
2022-08-28T18:19:19.403Z,34.28
2022-08-28T18:21:47.058Z,33.93
2022-08-28T18:24:14.636Z,34.54
2022-08-28T18:26:43.259Z,34.34
2022-08-28T18:29:10.767Z,34.46
2022-08-28T18:31:37.538Z,34.58
2022-08-28T18:34:04.263Z,34.40
2022-08-28T18:36:30.941Z,35.07
2022-08-28T18:38:58.042Z,35.06
2022-08-28T18:41:43.428Z,35.66
2022-08-28T18:44:18.407Z,35.41
2022-08-28T18:47:03.669Z,35.35
2022-08-28T18:49:30.205Z,35.54
2022-08-28T18:51:56.774Z,35.12
2022-08-28T18:54:23.549Z,35.29
2022-08-28T18:56:50.455Z,35.39
2022-08-28T18:59:18.125Z,35.27
2022-08-28T19:02:47.199Z,100.00
2022-08-28T19:06:02.960Z,35.27
2022-08-28T19:08:29.819Z,35.88
2022-08-28T19:10:56.946Z,36.46
2022-08-28T19:13:23.642Z,36.29
2022-08-28T19:15:52.710Z,36.69
2022-08-28T19:18:19.971Z,36.65
2022-08-28T19:21:20.142Z,36.96
2022-08-28T19:23:55.436Z,37.18
2022-08-28T19:26:34.241Z,37.59
2022-08-28T19:29:01.472Z,37.10
2022-08-28T19:31:28.248Z,37.60
2022-08-28T19:33:55.234Z,37.85
2022-08-28T19:36:21.933Z,38.57
2022-08-28T19:38:49.456Z,38.59
2022-08-28T19:41:16.383Z,39.05
2022-08-28T19:43:44.676Z,38.91
2022-08-28T19:46:19.533Z,38.74
2022-08-28T19:49:03.255Z,38.53
2022-08-28T19:51:29.876Z,38.71
2022-08-28T19:53:58.613Z,39.20
2022-08-28T19:59:58.943Z,38.63
2022-08-28T20:02:25.765Z,38.29
2022-08-28T20:04:52.602Z,38.17
2022-08-28T20:07:19.194Z,38.13
2022-08-28T20:09:45.733Z,38.28
2022-08-28T20:12:13.114Z,38.11
2022-08-28T20:14:41.496Z,38.48
2022-08-28T20:17:08.131Z,38.84
2022-08-28T20:19:34.673Z,38.85
2022-08-28T20:22:01.185Z,37.97
2022-08-28T20:24:28.158Z,38.06
2022-08-28T20:26:57.082Z,38.26
2022-08-28T20:29:24.346Z,37.98
2022-08-28T20:31:52.292Z,37.64
2022-08-28T20:34:20.465Z,37.42
2022-08-28T20:36:48.101Z,37.31
2022-08-28T20:39:15.562Z,37.50
2022-08-28T20:41:44.382Z,37.62
2022-08-28T20:44:14.346Z,37.73
2022-08-28T20:46:42.508Z,37.44
2022-08-28T20:49:11.329Z,39.90
2022-08-28T20:54:49.555Z,41.67
2022-08-28T20:57:18.925Z,43.50
2022-08-28T20:59:46.327Z,48.05
2022-08-28T21:02:52.384Z,52.62
2022-08-28T21:05:19.190Z,56.93
2022-08-28T21:07:45.800Z,59.94
2022-08-28T21:10:12.627Z,61.56
2022-08-28T21:12:39.993Z,63.40
2022-08-28T21:15:08.930Z,64.00
2022-08-28T21:17:35.577Z,66.17
2022-08-28T21:20:38.134Z,68.42
2022-08-28T21:23:06.600Z,68.60
2022-08-28T21:25:33.115Z,70.58
2022-08-28T21:27:59.753Z,71.55
2022-08-28T21:30:46.456Z,71.51
2022-08-28T21:33:13.385Z,72.60
2022-08-28T21:35:41.239Z,72.99
2022-08-28T21:38:07.804Z,73.60
2022-08-28T21:40:37.249Z,73.74
2022-08-28T21:43:03.932Z,74.41
2022-08-28T21:45:30.500Z,75.39
2022-08-28T21:47:57.049Z,75.86
2022-08-28T21:50:23.743Z,77.31
2022-08-28T21:52:50.299Z,77.95
2022-08-28T21:55:17.927Z,77.41
2022-08-28T21:57:44.717Z,78.78
2022-08-28T22:00:49.935Z,78.40
2022-08-28T22:03:17.622Z,79.09
2022-08-28T22:05:45.638Z,78.64
2022-08-28T22:08:13.795Z,79.66
2022-08-28T22:10:43.065Z,79.86
2022-08-28T22:13:11.523Z,80.79
2022-08-28T22:15:40.013Z,81.58
2022-08-28T22:18:08.182Z,82.33
2022-08-28T22:23:49.367Z,83.40
2022-08-28T22:29:00.495Z,83.50
2022-08-28T22:31:27.890Z,83.25
2022-08-28T22:33:54.544Z,84.38
2022-08-28T22:36:21.761Z,85.45
2022-08-28T22:38:53.594Z,84.42
2022-08-28T22:41:37.490Z,85.29
2022-08-28T22:44:04.672Z,86.03
2022-08-28T22:46:31.196Z,87.11
2022-08-28T22:48:59.263Z,86.25
2022-08-28T22:51:25.847Z,86.79
2022-08-28T22:53:52.549Z,87.30
2022-08-28T22:56:19.259Z,88.09
2022-08-28T22:58:45.848Z,87.71
2022-08-28T23:01:59.842Z,89.21
2022-08-28T23:04:26.964Z,88.99
2022-08-28T23:06:53.771Z,88.97
2022-08-28T23:09:20.400Z,89.60
2022-08-28T23:11:47.330Z,89.25
2022-08-28T23:14:14.811Z,90.65
2022-08-28T23:16:41.440Z,90.94
2022-08-28T23:19:09.548Z,91.25
2022-08-28T23:21:54.725Z,91.48
2022-08-28T23:24:21.469Z,91.12
2022-08-28T23:26:48.873Z,92.95
2022-08-28T23:29:15.427Z,93.34
2022-08-28T23:31:42.365Z,93.94
2022-08-28T23:34:09.274Z,94.45
2022-08-28T23:36:39.553Z,94.30
2022-08-28T23:39:24.530Z,95.39
2022-08-28T23:41:54.295Z,95.40
2022-08-28T23:44:21.170Z,95.01
2022-08-28T23:46:48.083Z,95.49
2022-08-28T23:49:18.134Z,96.34
2022-08-28T23:51:44.711Z,96.89
2022-08-28T23:54:11.519Z,98.27
2022-08-28T23:56:38.422Z,98.36
2022-08-28T23:59:05.722Z,97.68
